createdAt,value
2019-01-27T00:00:08.813Z,4.30
2019-01-27T00:01:08.798Z,4.28
2019-01-27T00:02:08.787Z,4.38
2019-01-27T00:03:08.778Z,4.30
2019-01-27T00:04:08.791Z,4.27
2019-01-27T00:05:08.760Z,4.31
2019-01-27T00:06:08.741Z,4.27
2019-01-27T00:07:08.748Z,4.28
2019-01-27T00:08:13.442Z,4.31
2019-01-27T00:09:09.749Z,4.30
2019-01-27T00:10:08.693Z,4.35
2019-01-27T00:11:08.683Z,4.31
2019-01-27T00:12:08.669Z,4.33
2019-01-27T00:13:08.671Z,4.20
2019-01-27T00:14:08.679Z,4.23
2019-01-27T00:15:08.643Z,4.33
2019-01-27T00:16:08.639Z,4.28
2019-01-27T00:17:08.632Z,4.23
2019-01-27T00:18:08.605Z,4.30
2019-01-27T00:19:08.655Z,4.27
2019-01-27T00:20:08.592Z,4.33
2019-01-27T00:21:08.600Z,4.28
2019-01-27T00:22:08.558Z,4.37
2019-01-27T00:23:08.547Z,4.31
2019-01-27T00:24:08.613Z,4.31
2019-01-27T00:25:08.526Z,4.28
2019-01-27T00:26:08.537Z,4.33
2019-01-27T00:27:08.559Z,4.22
2019-01-27T00:28:08.491Z,4.28
2019-01-27T00:29:08.501Z,4.30
2019-01-27T00:30:08.482Z,4.27
2019-01-27T00:31:08.480Z,4.28
2019-01-27T00:32:08.444Z,4.26
2019-01-27T00:33:08.491Z,4.28
2019-01-27T00:34:08.541Z,4.31
2019-01-27T00:35:08.452Z,4.33
2019-01-27T00:36:08.397Z,4.34
2019-01-27T00:37:08.389Z,4.27
2019-01-27T00:38:08.378Z,4.31
2019-01-27T00:39:08.419Z,4.30
2019-01-27T00:40:08.349Z,4.31
2019-01-27T00:41:08.360Z,4.22
2019-01-27T00:42:08.333Z,4.28
2019-01-27T00:43:08.323Z,4.27
2019-01-27T00:44:08.518Z,4.18
2019-01-27T00:45:08.293Z,4.33
2019-01-27T00:46:08.288Z,4.30
2019-01-27T00:47:08.290Z,4.26
2019-01-27T00:48:08.287Z,4.27
2019-01-27T00:49:08.269Z,4.20
2019-01-27T00:50:08.248Z,4.26
2019-01-27T00:51:08.223Z,4.19
2019-01-27T00:52:08.223Z,4.23
2019-01-27T00:53:08.206Z,4.27
2019-01-27T00:54:08.222Z,4.30
2019-01-27T00:55:08.185Z,4.20
2019-01-27T00:56:08.178Z,4.23
2019-01-27T00:57:08.161Z,4.26
2019-01-27T00:58:08.151Z,4.22
2019-01-27T00:59:08.154Z,4.22
2019-01-27T01:00:08.137Z,4.23
2019-01-27T01:01:08.259Z,4.20
2019-01-27T01:02:08.109Z,4.27
2019-01-27T01:03:08.085Z,4.22
2019-01-27T01:04:08.093Z,4.22
2019-01-27T01:05:08.067Z,4.22
2019-01-27T01:06:08.060Z,4.23
2019-01-27T01:07:08.048Z,4.27
2019-01-27T01:08:08.038Z,4.30
2019-01-27T01:09:08.051Z,4.30
2019-01-27T01:10:08.017Z,4.23
2019-01-27T01:11:07.998Z,4.31
2019-01-27T01:12:08.008Z,4.18
2019-01-27T01:13:07.980Z,4.27
2019-01-27T01:14:07.969Z,4.27
2019-01-27T01:15:07.976Z,4.30
2019-01-27T01:16:07.940Z,4.23
2019-01-27T01:17:07.934Z,4.22
2019-01-27T01:18:07.916Z,4.20
2019-01-27T01:19:07.912Z,4.18
2019-01-27T01:20:07.916Z,4.26
2019-01-27T01:21:07.885Z,4.26
2019-01-27T01:22:07.874Z,4.19
2019-01-27T01:23:07.861Z,4.19
2019-01-27T01:24:07.859Z,4.22
2019-01-27T01:25:07.868Z,4.26
2019-01-27T01:26:07.829Z,4.26
2019-01-27T01:27:07.814Z,4.26
2019-01-27T01:28:07.811Z,4.16
2019-01-27T01:29:07.801Z,4.22
2019-01-27T01:30:07.802Z,4.13
2019-01-27T01:31:07.774Z,4.19
2019-01-27T01:32:07.767Z,4.15
2019-01-27T01:33:07.771Z,4.19
2019-01-27T01:34:07.743Z,4.15
2019-01-27T01:35:07.755Z,4.05
2019-01-27T01:36:07.721Z,4.26
2019-01-27T01:37:07.703Z,4.15
2019-01-27T01:38:07.713Z,4.12
2019-01-27T01:39:07.693Z,4.09
2019-01-27T01:40:07.693Z,4.12
2019-01-27T01:41:07.664Z,4.15
2019-01-27T01:42:07.650Z,4.15
2019-01-27T01:43:07.646Z,4.15
2019-01-27T01:44:07.634Z,4.13
2019-01-27T01:45:07.656Z,4.19
2019-01-27T01:46:07.608Z,4.19
2019-01-27T01:47:07.598Z,4.23
2019-01-27T01:48:07.581Z,4.19
2019-01-27T01:49:07.572Z,4.12
2019-01-27T01:50:07.592Z,4.22
2019-01-27T01:51:07.545Z,4.22
2019-01-27T01:52:07.539Z,4.20
2019-01-27T01:53:07.540Z,4.22
2019-01-27T01:54:07.512Z,4.26
2019-01-27T01:55:07.505Z,4.23
2019-01-27T01:56:07.513Z,4.26
2019-01-27T01:57:07.477Z,4.18
2019-01-27T01:58:07.471Z,4.08
2019-01-27T01:59:07.467Z,4.15
2019-01-27T02:00:07.446Z,4.15
2019-01-27T02:01:07.461Z,4.19
2019-01-27T02:02:07.425Z,4.18
2019-01-27T02:03:07.411Z,4.09
2019-01-27T02:04:07.401Z,4.18
2019-01-27T02:05:07.398Z,4.13
2019-01-27T02:06:07.404Z,4.13
2019-01-27T02:07:07.368Z,4.15
2019-01-27T02:08:07.354Z,4.10
2019-01-27T02:09:07.357Z,4.13
2019-01-27T02:10:07.332Z,4.12
2019-01-27T02:11:07.352Z,4.12
2019-01-27T02:12:07.313Z,4.12
2019-01-27T02:13:07.303Z,4.09
2019-01-27T02:14:07.295Z,4.10
2019-01-27T02:15:07.275Z,4.09
2019-01-27T02:16:07.284Z,4.12
2019-01-27T02:17:07.260Z,4.10
2019-01-27T02:18:07.256Z,4.10
2019-01-27T02:19:07.230Z,4.12
2019-01-27T02:20:07.226Z,4.13
2019-01-27T02:21:07.225Z,4.12
2019-01-27T02:22:07.213Z,4.08
2019-01-27T02:23:07.187Z,4.05
2019-01-27T02:24:07.172Z,4.05
2019-01-27T02:25:07.173Z,4.02
2019-01-27T02:26:07.172Z,4.10
2019-01-27T02:27:07.168Z,4.10
2019-01-27T02:28:07.133Z,4.09
2019-01-27T02:29:07.114Z,4.09
2019-01-27T02:30:07.128Z,4.10
2019-01-27T02:31:07.142Z,4.13
2019-01-27T02:32:07.104Z,4.10
2019-01-27T02:33:07.077Z,4.12
2019-01-27T02:34:07.062Z,4.05
2019-01-27T02:35:07.064Z,4.08
2019-01-27T02:36:07.056Z,4.09
2019-01-27T02:37:07.048Z,4.10
2019-01-27T02:38:07.013Z,4.09
2019-01-27T02:39:07.006Z,4.15
2019-01-27T02:40:06.996Z,4.04
2019-01-27T02:41:06.981Z,4.12
2019-01-27T02:42:06.984Z,4.09
2019-01-27T02:43:06.965Z,4.10
2019-01-27T02:44:06.955Z,4.10
2019-01-27T02:45:06.938Z,4.08
2019-01-27T02:46:06.929Z,4.04
2019-01-27T02:47:06.938Z,4.05
2019-01-27T02:48:06.925Z,4.09
2019-01-27T02:49:06.894Z,4.02
2019-01-27T02:50:06.881Z,4.13
2019-01-27T02:51:06.886Z,4.13
2019-01-27T02:52:06.891Z,4.10
2019-01-27T02:53:06.846Z,4.08
2019-01-27T02:54:06.836Z,4.04
2019-01-27T02:55:06.821Z,4.09
2019-01-27T02:56:06.813Z,4.08
2019-01-27T02:57:06.849Z,4.09
2019-01-27T02:58:06.795Z,4.01
2019-01-27T02:59:06.777Z,3.92
2019-01-27T03:00:06.790Z,4.00
2019-01-27T03:01:06.755Z,4.01
2019-01-27T03:02:06.763Z,3.95
2019-01-27T03:03:06.742Z,3.94
2019-01-27T03:04:06.721Z,4.01
2019-01-27T03:05:06.735Z,3.94
2019-01-27T03:06:06.710Z,3.95
2019-01-27T03:07:06.724Z,4.00
2019-01-27T03:08:06.688Z,3.97
2019-01-27T03:09:06.674Z,3.98
2019-01-27T03:10:06.654Z,3.97
2019-01-27T03:11:06.651Z,4.10
2019-01-27T03:12:06.654Z,4.04
2019-01-27T03:13:06.637Z,4.08
2019-01-27T03:14:06.611Z,4.12
2019-01-27T03:15:06.597Z,4.08
2019-01-27T03:16:06.611Z,4.04
2019-01-27T03:17:06.595Z,4.01
2019-01-27T03:18:06.570Z,3.95
2019-01-27T03:19:06.548Z,3.97
2019-01-27T03:20:06.555Z,4.08
2019-01-27T03:21:06.533Z,3.97
2019-01-27T03:22:06.524Z,3.95
2019-01-27T03:23:06.541Z,4.00
2019-01-27T03:24:06.499Z,4.04
2019-01-27T03:25:06.482Z,4.00
2019-01-27T03:26:06.473Z,3.97
2019-01-27T03:27:06.458Z,4.01
2019-01-27T03:28:06.468Z,3.92
2019-01-27T03:29:06.440Z,3.94
2019-01-27T03:30:06.430Z,3.95
2019-01-27T03:31:06.411Z,3.97
2019-01-27T03:32:06.409Z,4.00
2019-01-27T03:33:06.428Z,3.95
2019-01-27T03:34:06.401Z,3.97
2019-01-27T03:35:06.374Z,3.95
2019-01-27T03:36:06.357Z,3.91
2019-01-27T03:37:06.348Z,3.84
2019-01-27T03:38:06.386Z,3.83
2019-01-27T03:39:06.337Z,3.86
2019-01-27T03:40:06.318Z,3.91
2019-01-27T03:41:06.315Z,3.91
2019-01-27T03:42:06.289Z,3.95
2019-01-27T03:43:06.305Z,3.91
2019-01-27T03:44:06.278Z,3.88
2019-01-27T03:45:06.257Z,3.94
2019-01-27T03:46:06.269Z,3.91
2019-01-27T03:47:06.249Z,3.91
2019-01-27T03:48:06.242Z,3.80
2019-01-27T03:49:06.212Z,3.90
2019-01-27T03:50:06.208Z,3.91
2019-01-27T03:51:06.195Z,3.92
2019-01-27T03:52:06.196Z,3.84
2019-01-27T03:53:06.184Z,3.88
2019-01-27T03:54:06.157Z,3.83
2019-01-27T03:55:06.143Z,3.88
2019-01-27T03:56:06.140Z,3.90
2019-01-27T03:57:06.128Z,3.92
2019-01-27T03:58:06.137Z,3.94
2019-01-27T03:59:06.099Z,3.91
2019-01-27T04:00:06.088Z,3.91
2019-01-27T04:01:06.080Z,3.92
2019-01-27T04:02:06.056Z,3.92
2019-01-27T04:03:06.054Z,3.91
2019-01-27T04:04:06.085Z,3.95
2019-01-27T04:05:06.033Z,3.97
2019-01-27T04:06:06.020Z,3.95
2019-01-27T04:07:06.014Z,3.94
2019-01-27T04:08:06.004Z,3.94
2019-01-27T04:09:06.002Z,3.97
2019-01-27T04:10:05.974Z,3.95
2019-01-27T04:11:05.970Z,3.97
2019-01-27T04:12:05.954Z,3.98
2019-01-27T04:13:05.937Z,3.97
2019-01-27T04:14:05.946Z,3.97
2019-01-27T04:15:05.917Z,3.98
2019-01-27T04:16:05.907Z,4.00
2019-01-27T04:17:05.903Z,3.95
2019-01-27T04:18:05.904Z,3.98
2019-01-27T04:19:05.909Z,3.98
2019-01-27T04:20:05.859Z,4.00
2019-01-27T04:21:05.857Z,3.94
2019-01-27T04:22:05.835Z,3.94
2019-01-27T04:23:05.828Z,3.92
2019-01-27T04:24:05.861Z,3.92
2019-01-27T04:25:05.803Z,4.00
2019-01-27T04:26:05.797Z,4.00
2019-01-27T04:27:05.775Z,3.95
2019-01-27T04:28:05.767Z,3.92
2019-01-27T04:29:05.775Z,3.98
2019-01-27T04:30:05.742Z,3.98
2019-01-27T04:31:05.732Z,3.95
2019-01-27T04:32:05.728Z,3.92
2019-01-27T04:33:05.714Z,3.90
2019-01-27T04:34:05.714Z,3.91
2019-01-27T04:35:05.693Z,3.92
2019-01-27T04:36:05.676Z,3.88
2019-01-27T04:37:05.677Z,3.84
2019-01-27T04:38:05.658Z,3.92
2019-01-27T04:39:05.673Z,3.84
2019-01-27T04:40:05.630Z,3.90
2019-01-27T04:41:05.622Z,3.92
2019-01-27T04:42:05.618Z,3.94
2019-01-27T04:43:05.628Z,3.88
2019-01-27T04:44:05.641Z,3.88
2019-01-27T04:45:05.577Z,3.86
2019-01-27T04:46:05.570Z,3.90
2019-01-27T04:47:05.556Z,3.90
2019-01-27T04:48:05.552Z,3.88
2019-01-27T04:49:05.528Z,3.90
2019-01-27T04:50:05.549Z,3.83
2019-01-27T04:51:05.515Z,3.90
2019-01-27T04:52:05.497Z,3.84
2019-01-27T04:53:05.486Z,3.84
2019-01-27T04:54:05.476Z,3.90
2019-01-27T04:55:05.487Z,3.86
2019-01-27T04:56:05.453Z,3.84
2019-01-27T04:57:05.446Z,3.88
2019-01-27T04:58:05.437Z,3.77
2019-01-27T04:59:05.418Z,3.84
2019-01-27T05:00:05.427Z,3.79
2019-01-27T05:01:06.431Z,3.79
2019-01-27T05:02:05.386Z,3.74
2019-01-27T05:03:05.371Z,3.77
2019-01-27T05:04:05.361Z,3.88
2019-01-27T05:05:05.369Z,3.82
2019-01-27T05:06:05.345Z,3.84
2019-01-27T05:07:05.326Z,3.83
2019-01-27T05:08:05.321Z,3.82
2019-01-27T05:09:05.306Z,3.83
2019-01-27T05:10:05.308Z,3.84
2019-01-27T05:11:05.284Z,3.88
2019-01-27T05:12:05.264Z,3.90
2019-01-27T05:13:05.262Z,3.83
2019-01-27T05:14:05.247Z,3.92
2019-01-27T05:15:05.258Z,3.95
2019-01-27T05:16:05.224Z,3.92
2019-01-27T05:17:05.226Z,3.88
2019-01-27T05:18:05.210Z,3.90
2019-01-27T05:19:05.204Z,3.88
2019-01-27T05:20:05.199Z,3.86
2019-01-27T05:21:05.167Z,3.83
2019-01-27T05:22:05.156Z,3.90
2019-01-27T05:23:05.149Z,3.83
2019-01-27T05:24:05.146Z,3.91
2019-01-27T05:25:05.150Z,3.90
2019-01-27T05:26:05.124Z,3.94
2019-01-27T05:27:05.132Z,3.83
2019-01-27T05:28:05.133Z,3.83
2019-01-27T05:29:05.079Z,3.84
2019-01-27T05:30:05.067Z,3.83
2019-01-27T05:31:05.104Z,3.82
2019-01-27T05:32:05.047Z,3.80
2019-01-27T05:33:05.033Z,3.84
2019-01-27T05:34:05.020Z,3.76
2019-01-27T05:35:05.010Z,3.80
2019-01-27T05:36:05.018Z,3.79
2019-01-27T05:37:04.995Z,3.82
2019-01-27T05:38:04.970Z,3.79
2019-01-27T05:39:04.963Z,3.82
2019-01-27T05:40:04.954Z,3.84
2019-01-27T05:41:04.967Z,3.77
2019-01-27T05:42:04.923Z,3.84
2019-01-27T05:43:04.933Z,3.79
2019-01-27T05:44:04.904Z,3.84
2019-01-27T05:45:04.899Z,3.86
2019-01-27T05:46:06.675Z,3.91
2019-01-27T05:47:04.884Z,3.88
2019-01-27T05:48:04.872Z,3.92
2019-01-27T05:49:04.848Z,3.95
2019-01-27T05:50:04.842Z,3.94
2019-01-27T05:51:04.849Z,3.95
2019-01-27T05:52:04.812Z,3.91
2019-01-27T05:53:04.805Z,3.98
2019-01-27T05:54:04.788Z,3.92
2019-01-27T05:55:04.780Z,3.94
2019-01-27T05:56:04.788Z,3.94
2019-01-27T05:57:04.763Z,3.84
2019-01-27T05:58:04.749Z,3.95
2019-01-27T05:59:04.732Z,3.92
2019-01-27T06:00:04.725Z,3.90
2019-01-27T06:01:04.784Z,3.88
2019-01-27T06:02:04.706Z,3.90
2019-01-27T06:03:04.699Z,3.84
2019-01-27T06:04:04.675Z,3.88
2019-01-27T06:05:04.677Z,3.90
2019-01-27T06:06:04.685Z,3.86
2019-01-27T06:07:04.646Z,3.84
2019-01-27T06:08:04.639Z,3.84
2019-01-27T06:09:04.620Z,3.86
2019-01-27T06:10:04.625Z,3.88
2019-01-27T06:11:04.601Z,3.88
2019-01-27T06:12:04.611Z,3.90
2019-01-27T06:13:04.589Z,3.83
2019-01-27T06:14:04.568Z,3.91
2019-01-27T06:15:04.565Z,3.92
2019-01-27T06:16:04.544Z,3.91
2019-01-27T06:17:04.601Z,3.97
2019-01-27T06:18:04.522Z,3.92
2019-01-27T06:19:04.526Z,3.95
2019-01-27T06:20:04.521Z,3.94
2019-01-27T06:21:04.497Z,3.94
2019-01-27T06:22:04.497Z,3.95
2019-01-27T06:23:04.468Z,3.95
2019-01-27T06:24:04.491Z,3.94
2019-01-27T06:25:04.444Z,3.95
2019-01-27T06:26:04.476Z,3.97
2019-01-27T06:27:04.440Z,3.91
2019-01-27T06:28:04.411Z,3.94
2019-01-27T06:29:04.416Z,3.91
2019-01-27T06:30:04.390Z,3.91
2019-01-27T06:31:04.381Z,3.95
2019-01-27T06:32:04.402Z,3.92
2019-01-27T06:33:04.354Z,3.92
2019-01-27T06:34:04.342Z,3.91
2019-01-27T06:35:04.356Z,3.95
2019-01-27T06:36:04.329Z,3.91
2019-01-27T06:37:04.339Z,3.92
2019-01-27T06:38:04.299Z,3.95
2019-01-27T06:39:04.290Z,3.97
2019-01-27T06:40:04.280Z,3.95
2019-01-27T06:41:04.273Z,4.00
2019-01-27T06:42:04.275Z,4.01
2019-01-27T06:43:04.243Z,4.08
2019-01-27T06:44:04.236Z,4.02
2019-01-27T06:45:04.222Z,4.00
2019-01-27T06:46:04.221Z,3.95
2019-01-27T06:47:04.223Z,4.00
2019-01-27T06:48:04.183Z,3.97
2019-01-27T06:49:04.180Z,4.04
2019-01-27T06:50:04.165Z,4.00
2019-01-27T06:51:04.154Z,4.01
2019-01-27T06:52:04.190Z,4.02
2019-01-27T06:53:04.129Z,4.00
2019-01-27T06:54:04.188Z,4.00
2019-01-27T06:55:04.118Z,4.08
2019-01-27T06:56:04.095Z,4.02
2019-01-27T06:57:04.110Z,4.01
2019-01-27T06:58:04.123Z,3.94
2019-01-27T06:59:04.067Z,4.04
2019-01-27T07:00:04.105Z,4.00
2019-01-27T07:01:04.046Z,3.92
2019-01-27T07:02:04.047Z,4.01
2019-01-27T07:03:04.040Z,3.98
2019-01-27T07:04:04.004Z,4.01
2019-01-27T07:05:04.002Z,4.02
2019-01-27T07:06:03.986Z,4.01
2019-01-27T07:07:03.989Z,4.05
2019-01-27T07:08:03.982Z,4.05
2019-01-27T07:09:05.136Z,4.08
2019-01-27T07:10:03.939Z,4.00
2019-01-27T07:11:03.928Z,4.13
2019-01-27T07:12:03.914Z,4.09
2019-01-27T07:13:03.928Z,4.13
2019-01-27T07:14:03.897Z,4.08
2019-01-27T07:15:03.879Z,4.12
2019-01-27T07:16:03.866Z,4.12
2019-01-27T07:17:03.862Z,4.10
2019-01-27T07:18:03.871Z,4.09
2019-01-27T07:19:03.844Z,4.10
2019-01-27T07:20:03.827Z,4.08
2019-01-27T07:21:03.807Z,4.13
2019-01-27T07:22:03.808Z,4.08
2019-01-27T07:23:03.820Z,4.10
2019-01-27T07:24:03.788Z,4.10
2019-01-27T07:25:03.772Z,4.12
2019-01-27T07:26:03.754Z,4.12
2019-01-27T07:27:03.742Z,4.12
2019-01-27T07:28:03.755Z,4.15
2019-01-27T07:29:03.718Z,4.15
2019-01-27T07:30:03.710Z,4.34
2019-01-27T07:31:03.709Z,4.35
2019-01-27T07:32:03.698Z,4.45
2019-01-27T07:33:03.714Z,4.49
2019-01-27T07:34:03.678Z,4.56
2019-01-27T07:35:03.661Z,4.61
2019-01-27T07:36:03.689Z,4.69
2019-01-27T07:37:03.635Z,4.66
2019-01-27T07:38:03.618Z,4.77
2019-01-27T07:39:03.715Z,4.80
2019-01-27T07:40:03.611Z,4.88
2019-01-27T07:41:03.583Z,4.92
2019-01-27T07:42:03.578Z,4.93
2019-01-27T07:43:03.562Z,5.04
2019-01-27T07:44:03.597Z,4.95
2019-01-27T07:45:03.542Z,5.06
2019-01-27T07:46:03.527Z,5.10
2019-01-27T07:47:03.517Z,5.19
2019-01-27T07:48:03.502Z,5.21
2019-01-27T07:49:03.543Z,5.21
2019-01-27T07:50:03.486Z,5.17
2019-01-27T07:51:03.501Z,5.31
2019-01-27T07:52:04.352Z,5.24
2019-01-27T07:53:03.451Z,5.25
2019-01-27T07:54:03.476Z,5.31
2019-01-27T07:55:03.425Z,5.28
2019-01-27T07:56:03.424Z,5.19
2019-01-27T07:57:03.403Z,5.13
2019-01-27T07:58:03.447Z,5.11
2019-01-27T07:59:03.428Z,5.07
2019-01-27T08:00:03.437Z,5.06
2019-01-27T08:01:03.367Z,5.03
2019-01-27T08:02:03.350Z,4.95
2019-01-27T08:03:03.344Z,4.96
2019-01-27T08:04:03.360Z,4.88
2019-01-27T08:05:03.318Z,4.88
2019-01-27T08:06:03.306Z,4.88
2019-01-27T08:07:03.293Z,4.83
2019-01-27T08:08:03.318Z,4.86
2019-01-27T08:09:03.349Z,4.80
2019-01-27T08:10:03.265Z,4.85
2019-01-27T08:11:03.254Z,4.83
2019-01-27T08:12:03.249Z,4.79
2019-01-27T08:13:03.243Z,4.69
2019-01-27T08:14:03.251Z,4.66
2019-01-27T08:15:03.200Z,4.66
2019-01-27T08:16:03.200Z,4.64
2019-01-27T08:17:03.652Z,4.61
2019-01-27T08:18:03.184Z,4.61
2019-01-27T08:19:03.168Z,4.55
2019-01-27T08:20:03.174Z,4.58
2019-01-27T08:21:03.147Z,4.61
2019-01-27T08:22:03.123Z,4.56
2019-01-27T08:23:03.172Z,4.58
2019-01-27T08:24:03.114Z,4.55
2019-01-27T08:25:03.146Z,4.61
2019-01-27T08:26:03.082Z,4.51
2019-01-27T08:27:03.070Z,4.46
2019-01-27T08:28:03.078Z,4.53
2019-01-27T08:29:03.052Z,4.52
2019-01-27T08:30:03.066Z,4.52
2019-01-27T08:31:03.031Z,4.55
2019-01-27T08:32:03.027Z,4.58
2019-01-27T08:33:03.004Z,4.55
2019-01-27T08:34:03.005Z,4.52
2019-01-27T08:35:03.006Z,4.61
2019-01-27T08:36:02.976Z,4.63
2019-01-27T08:37:02.969Z,4.52
2019-01-27T08:38:02.944Z,4.53
2019-01-27T08:39:02.940Z,4.53
2019-01-27T08:40:02.946Z,4.55
2019-01-27T08:41:02.975Z,4.63
2019-01-27T08:42:02.902Z,4.63
2019-01-27T08:43:02.901Z,4.64
2019-01-27T08:44:02.885Z,4.67
2019-01-27T08:45:02.902Z,4.61
2019-01-27T08:46:02.856Z,4.69
2019-01-27T08:47:02.853Z,4.71
2019-01-27T08:48:02.841Z,4.69
2019-01-27T08:49:02.826Z,4.70
2019-01-27T08:50:02.849Z,4.64
2019-01-27T08:51:02.888Z,4.63
2019-01-27T08:52:02.790Z,4.70
2019-01-27T08:53:02.777Z,4.67
2019-01-27T08:54:02.777Z,4.66
2019-01-27T08:55:02.783Z,4.58
2019-01-27T08:56:02.746Z,4.66
2019-01-27T08:57:02.730Z,4.64
2019-01-27T08:58:02.783Z,4.67
2019-01-27T08:59:02.857Z,4.56
2019-01-27T09:00:02.772Z,4.64
2019-01-27T09:01:02.690Z,4.56
2019-01-27T09:02:02.690Z,4.53
2019-01-27T09:03:03.469Z,4.69
2019-01-27T09:04:02.675Z,4.66
2019-01-27T09:05:02.653Z,4.58
2019-01-27T09:06:02.675Z,4.63
2019-01-27T09:07:02.634Z,4.55
2019-01-27T09:08:02.619Z,4.63
2019-01-27T09:09:02.612Z,4.56
2019-01-27T09:10:02.605Z,4.58
2019-01-27T09:11:02.901Z,4.53
2019-01-27T09:12:02.575Z,4.63
2019-01-27T09:13:02.559Z,4.55
2019-01-27T09:14:02.559Z,4.63
2019-01-27T09:15:02.543Z,4.64
2019-01-27T09:16:02.546Z,4.69
2019-01-27T09:17:02.516Z,4.69
2019-01-27T09:18:02.501Z,4.76
2019-01-27T09:19:02.504Z,4.85
2019-01-27T09:20:02.492Z,4.85
2019-01-27T09:21:02.493Z,4.88
2019-01-27T09:22:02.469Z,4.98
2019-01-27T09:23:02.453Z,4.95
2019-01-27T09:24:02.456Z,5.03
2019-01-27T09:25:02.476Z,5.06
2019-01-27T09:26:02.432Z,5.14
2019-01-27T09:27:02.401Z,5.22
2019-01-27T09:28:02.392Z,5.16
2019-01-27T09:29:02.388Z,5.24
2019-01-27T09:30:02.371Z,5.26
2019-01-27T09:31:02.394Z,5.32
2019-01-27T09:32:02.360Z,5.39
2019-01-27T09:33:02.343Z,5.32
2019-01-27T09:34:02.347Z,5.42
2019-01-27T09:35:02.433Z,5.42
2019-01-27T09:36:02.322Z,5.43
2019-01-27T09:37:02.312Z,5.46
2019-01-27T09:38:02.301Z,5.53
2019-01-27T09:39:02.315Z,5.51
2019-01-27T09:40:02.262Z,5.47
2019-01-27T09:41:02.271Z,5.47
2019-01-27T09:42:02.271Z,5.44
2019-01-27T09:43:02.231Z,5.46
2019-01-27T09:44:02.226Z,5.44
2019-01-27T09:45:02.222Z,5.36
2019-01-27T09:46:05.601Z,5.32
2019-01-27T09:47:03.202Z,5.39
2019-01-27T09:48:02.177Z,5.36
2019-01-27T09:49:02.241Z,5.39
2019-01-27T09:50:02.156Z,5.29
2019-01-27T09:51:02.163Z,5.44
2019-01-27T09:52:02.133Z,5.49
2019-01-27T09:53:02.131Z,5.43
2019-01-27T09:54:02.115Z,5.44
2019-01-27T09:55:02.102Z,5.44
2019-01-27T09:56:02.122Z,5.47
2019-01-27T09:57:02.087Z,5.46
2019-01-27T09:58:02.074Z,5.58
2019-01-27T09:59:02.053Z,5.62
2019-01-27T10:00:02.057Z,5.67
2019-01-27T10:01:02.037Z,5.76
2019-01-27T10:02:02.080Z,5.80
2019-01-27T10:03:02.010Z,5.83
2019-01-27T10:04:01.991Z,5.87
2019-01-27T10:05:02.022Z,5.80
2019-01-27T10:06:02.022Z,5.90
2019-01-27T10:07:02.036Z,6.01
2019-01-27T10:08:01.943Z,6.00
2019-01-27T10:09:01.939Z,6.03
2019-01-27T10:10:01.918Z,6.11
2019-01-27T10:11:01.909Z,6.19
2019-01-27T10:12:01.928Z,6.10
2019-01-27T10:13:01.912Z,6.18
2019-01-27T10:14:01.937Z,6.24
2019-01-27T10:15:01.878Z,6.30
2019-01-27T10:16:01.857Z,6.32
2019-01-27T10:17:01.864Z,6.37
2019-01-27T10:18:01.851Z,6.32
2019-01-27T10:19:01.823Z,6.38
2019-01-27T10:20:02.072Z,6.39
2019-01-27T10:21:02.351Z,6.48
2019-01-27T10:22:01.837Z,6.45
2019-01-27T10:23:01.794Z,6.47
2019-01-27T10:24:01.768Z,6.38
2019-01-27T10:25:01.772Z,6.45
2019-01-27T10:26:01.749Z,6.41
2019-01-27T10:27:01.780Z,6.49
2019-01-27T10:28:01.736Z,6.49
2019-01-27T10:29:01.708Z,6.47
2019-01-27T10:30:01.705Z,6.42
2019-01-27T10:31:01.694Z,6.49
2019-01-27T10:32:01.671Z,6.44
2019-01-27T10:33:01.712Z,6.52
2019-01-27T10:34:01.654Z,6.45
2019-01-27T10:35:01.638Z,6.49
2019-01-27T10:36:01.637Z,6.52
2019-01-27T10:37:01.610Z,6.53
2019-01-27T10:38:01.625Z,6.41
2019-01-27T10:39:01.617Z,6.47
2019-01-27T10:40:09.170Z,6.42
2019-01-27T10:41:02.610Z,6.41
2019-01-27T10:42:01.560Z,6.30
2019-01-27T10:43:01.576Z,6.35
2019-01-27T10:44:01.547Z,6.37
2019-01-27T10:45:01.525Z,6.24
2019-01-27T10:46:01.515Z,6.34
2019-01-27T10:47:01.500Z,6.27
2019-01-27T10:48:01.519Z,6.30
2019-01-27T10:49:01.490Z,6.30
2019-01-27T10:50:02.987Z,6.24
2019-01-27T10:51:01.453Z,6.35
2019-01-27T10:52:01.447Z,6.18
2019-01-27T10:53:01.489Z,6.24
2019-01-27T10:54:01.436Z,6.24
2019-01-27T10:55:01.413Z,6.21
2019-01-27T10:56:01.406Z,6.22
2019-01-27T10:57:01.400Z,6.27
2019-01-27T10:58:01.392Z,6.15
2019-01-27T10:59:01.375Z,6.22
2019-01-27T11:00:01.358Z,6.24
2019-01-27T11:01:01.354Z,6.10
2019-01-27T11:02:01.329Z,6.11
2019-01-27T11:03:01.341Z,6.07
2019-01-27T11:04:01.318Z,6.13
2019-01-27T11:05:01.289Z,6.00
2019-01-27T11:06:01.298Z,6.04
2019-01-27T11:07:01.304Z,6.01
2019-01-27T11:08:01.285Z,6.05
2019-01-27T11:09:01.248Z,6.08
2019-01-27T11:10:01.270Z,6.01
2019-01-27T11:11:01.260Z,6.07
2019-01-27T11:12:01.227Z,6.08
2019-01-27T11:13:01.288Z,5.94
2019-01-27T11:14:01.207Z,5.92
2019-01-27T11:15:01.193Z,5.90
2019-01-27T11:16:01.240Z,5.80
2019-01-27T11:17:01.162Z,5.94
2019-01-27T11:18:01.157Z,5.95
2019-01-27T11:19:01.166Z,5.83
2019-01-27T11:20:01.136Z,5.82
2019-01-27T11:21:01.559Z,5.85
2019-01-27T11:22:01.109Z,5.94
2019-01-27T11:23:01.102Z,5.90
2019-01-27T11:24:01.107Z,5.87
2019-01-27T11:25:01.088Z,5.83
2019-01-27T11:26:01.884Z,5.94
2019-01-27T11:27:01.040Z,5.85
2019-01-27T11:28:01.027Z,5.83
2019-01-27T11:29:01.040Z,5.92
2019-01-27T11:30:01.049Z,5.95
2019-01-27T11:31:01.002Z,5.90
2019-01-27T11:32:00.985Z,6.00
2019-01-27T11:33:02.564Z,5.94
2019-01-27T11:34:00.993Z,5.83
2019-01-27T11:35:00.945Z,5.89
2019-01-27T11:36:00.980Z,5.83
2019-01-27T11:37:00.953Z,5.85
2019-01-27T11:38:00.925Z,5.87
2019-01-27T11:39:00.952Z,5.89
2019-01-27T11:40:00.893Z,5.86
2019-01-27T11:41:00.894Z,5.82
2019-01-27T11:42:00.891Z,5.85
2019-01-27T11:43:00.863Z,5.90
2019-01-27T11:44:00.888Z,5.87
2019-01-27T11:45:00.910Z,5.83
2019-01-27T11:46:00.849Z,5.86
2019-01-27T11:47:00.817Z,5.94
2019-01-27T11:48:00.801Z,5.89
2019-01-27T11:49:00.832Z,5.98
2019-01-27T11:50:00.792Z,6.03
2019-01-27T11:51:00.827Z,6.05
2019-01-27T11:52:00.754Z,6.05
2019-01-27T11:53:00.755Z,6.19
2019-01-27T11:54:00.769Z,6.13
2019-01-27T11:55:00.738Z,6.21
2019-01-27T11:56:00.716Z,6.22
2019-01-27T11:57:00.717Z,6.19
2019-01-27T11:58:00.689Z,6.15
2019-01-27T11:59:00.715Z,6.11
2019-01-27T12:00:00.667Z,6.18
2019-01-27T12:01:00.742Z,6.10
2019-01-27T12:02:00.641Z,6.04
2019-01-27T12:03:00.642Z,6.07
2019-01-27T12:04:00.635Z,6.05
2019-01-27T12:05:00.625Z,5.98
2019-01-27T12:06:00.598Z,5.98
2019-01-27T12:07:00.597Z,5.98
2019-01-27T12:08:00.628Z,6.01
2019-01-27T12:09:00.592Z,6.03
2019-01-27T12:10:00.607Z,6.05
2019-01-27T12:11:00.536Z,5.94
2019-01-27T12:12:00.537Z,5.98
2019-01-27T12:13:00.525Z,5.98
2019-01-27T12:14:00.509Z,6.01
2019-01-27T12:15:00.523Z,5.83
2019-01-27T12:16:00.482Z,5.89
2019-01-27T12:17:00.474Z,5.83
2019-01-27T12:18:00.459Z,5.86
2019-01-27T12:19:00.444Z,5.97
2019-01-27T12:20:00.447Z,5.92
2019-01-27T12:21:00.425Z,5.97
2019-01-27T12:22:00.408Z,5.95
2019-01-27T12:23:00.402Z,5.94
2019-01-27T12:24:00.395Z,5.97
2019-01-27T12:25:00.446Z,6.00
2019-01-27T12:26:00.388Z,6.00
2019-01-27T12:27:00.349Z,6.01
2019-01-27T12:28:00.371Z,5.95
2019-01-27T12:29:00.348Z,6.00
2019-01-27T12:30:00.413Z,5.83
2019-01-27T12:31:00.316Z,5.85
2019-01-27T12:32:00.319Z,5.90
2019-01-27T12:33:00.296Z,5.87
2019-01-27T12:34:00.423Z,5.86
2019-01-27T12:35:00.327Z,5.86
2019-01-27T12:36:00.296Z,5.82
2019-01-27T12:37:00.241Z,5.74
2019-01-27T12:38:00.238Z,5.72
2019-01-27T12:39:00.239Z,5.72
2019-01-27T12:40:00.278Z,5.74
2019-01-27T12:41:00.203Z,5.80
2019-01-27T12:42:00.214Z,5.83
2019-01-27T12:43:00.182Z,5.80
2019-01-27T12:44:00.161Z,5.85
2019-01-27T12:45:00.197Z,5.87
2019-01-27T12:46:00.165Z,5.87
2019-01-27T12:47:00.137Z,5.82
2019-01-27T12:48:00.130Z,5.87
2019-01-27T12:49:00.120Z,5.90
2019-01-27T12:50:00.141Z,5.92
2019-01-27T12:51:00.119Z,5.98
2019-01-27T12:52:00.092Z,5.94
2019-01-27T12:53:00.083Z,6.04
2019-01-27T12:54:00.139Z,5.98
2019-01-27T12:55:00.037Z,5.98
2019-01-27T12:56:00.045Z,5.95
2019-01-27T12:57:00.014Z,6.01
2019-01-27T12:58:00.018Z,5.98
2019-01-27T12:58:59.994Z,5.94
2019-01-27T12:59:59.976Z,6.03
2019-01-27T13:01:00.260Z,6.04
2019-01-27T13:01:59.960Z,6.05
2019-01-27T13:02:59.959Z,5.94
2019-01-27T13:03:59.930Z,6.04
2019-01-27T13:04:59.928Z,6.00
2019-01-27T13:05:59.995Z,5.98
2019-01-27T13:06:59.911Z,6.03
2019-01-27T13:07:59.888Z,6.03
2019-01-27T13:08:59.893Z,6.05
2019-01-27T13:09:59.900Z,6.13
2019-01-27T13:10:59.886Z,6.05
2019-01-27T13:11:59.862Z,6.05
2019-01-27T13:12:59.850Z,6.07
2019-01-27T13:13:59.816Z,6.01
2019-01-27T13:14:59.815Z,6.07
2019-01-27T13:15:59.842Z,6.04
2019-01-27T13:16:59.791Z,6.05
2019-01-27T13:17:59.785Z,6.03